createdAt,value
2022-10-28T00:00:32.804Z,56.49
2022-10-28T00:03:02.889Z,56.57
2022-10-28T00:05:33.533Z,56.41
2022-10-28T00:08:00.418Z,56.47
2022-10-28T00:10:27.306Z,56.50
2022-10-28T00:12:54.205Z,58.06
2022-10-28T00:15:21.097Z,58.03
2022-10-28T00:17:47.988Z,57.43
2022-10-28T00:20:15.979Z,57.34
2022-10-28T00:22:43.333Z,57.41
2022-10-28T00:25:10.952Z,58.60
2022-10-28T00:27:37.823Z,58.16
2022-10-28T00:30:05.086Z,57.98
2022-10-28T00:32:32.454Z,58.79
2022-10-28T00:34:59.371Z,58.33
2022-10-28T00:37:26.233Z,57.86
2022-10-28T00:39:53.263Z,57.85
2022-10-28T00:42:22.287Z,57.58
2022-10-28T00:44:58.279Z,57.59
2022-10-28T00:47:37.659Z,57.62
2022-10-28T00:50:04.533Z,57.62
2022-10-28T00:52:32.638Z,57.81
2022-10-28T00:55:01.813Z,57.57
2022-10-28T00:57:35.402Z,57.73
2022-10-28T01:00:05.493Z,58.30
2022-10-28T01:02:37.840Z,59.58
2022-10-28T01:05:04.978Z,60.54
2022-10-28T01:07:31.911Z,59.81
2022-10-28T01:09:58.801Z,59.47
2022-10-28T01:12:41.699Z,60.50
2022-10-28T01:15:13.359Z,59.91
2022-10-28T01:17:55.468Z,59.82
2022-10-28T01:20:25.346Z,59.35
2022-10-28T01:23:05.822Z,58.96
2022-10-28T01:25:41.717Z,58.83
2022-10-28T01:28:33.016Z,59.27
2022-10-28T01:31:14.819Z,59.36
2022-10-28T01:34:02.935Z,61.12
2022-10-28T01:36:47.858Z,60.92
2022-10-28T01:39:39.775Z,61.12
2022-10-28T01:42:26.829Z,61.28
2022-10-28T01:45:10.476Z,62.78
2022-10-28T01:47:53.519Z,63.63
2022-10-28T01:50:27.075Z,63.63
2022-10-28T01:52:58.287Z,63.00
2022-10-28T01:55:37.610Z,62.43
2022-10-28T01:58:07.347Z,62.23
2022-10-28T02:00:37.060Z,62.36
2022-10-28T02:03:07.967Z,62.96
2022-10-28T02:05:45.771Z,63.18
2022-10-28T02:08:18.737Z,63.38
2022-10-28T02:11:00.911Z,63.43
2022-10-28T02:13:37.079Z,63.15
2022-10-28T02:16:34.735Z,63.89
2022-10-28T02:19:01.629Z,63.44
2022-10-28T02:21:44.923Z,62.80
2022-10-28T02:24:36.864Z,62.38
2022-10-28T02:27:29.820Z,61.74
2022-10-28T02:30:07.654Z,61.76
2022-10-28T02:32:40.598Z,61.81
2022-10-28T02:35:14.326Z,62.10
2022-10-28T02:37:44.116Z,62.11
2022-10-28T02:40:18.692Z,61.63
2022-10-28T02:43:03.569Z,61.54
2022-10-28T02:45:36.576Z,61.52
2022-10-28T02:48:27.293Z,61.80
2022-10-28T02:51:00.726Z,62.11
2022-10-28T02:53:33.448Z,62.11
2022-10-28T02:56:04.319Z,61.72
2022-10-28T02:58:40.178Z,61.96
2022-10-28T03:01:07.683Z,62.85
2022-10-28T03:03:34.605Z,62.34
2022-10-28T03:06:01.470Z,61.38
2022-10-28T03:08:28.362Z,61.31
2022-10-28T03:10:55.236Z,62.12
2022-10-28T03:13:22.140Z,62.21
2022-10-28T03:15:48.980Z,63.30
2022-10-28T03:18:15.923Z,62.88
2022-10-28T03:20:42.909Z,62.66
2022-10-28T03:23:09.757Z,62.21
2022-10-28T03:25:36.738Z,62.12
2022-10-28T03:28:03.892Z,63.59
2022-10-28T03:30:30.853Z,63.65
2022-10-28T03:32:57.814Z,63.08
2022-10-28T03:35:24.722Z,62.76
2022-10-28T03:37:51.735Z,64.84
2022-10-28T03:40:18.685Z,64.66
2022-10-28T03:42:45.890Z,64.60
2022-10-28T03:45:12.827Z,65.02
2022-10-28T03:47:40.253Z,65.04
2022-10-28T03:50:07.603Z,66.13
2022-10-28T03:52:34.510Z,65.71
2022-10-28T03:55:01.450Z,65.64
2022-10-28T03:57:31.785Z,66.62
2022-10-28T03:59:58.725Z,66.65
2022-10-28T04:02:26.765Z,65.98
2022-10-28T04:04:53.795Z,66.71
2022-10-28T04:07:20.813Z,66.85
2022-10-28T04:09:51.430Z,66.13
2022-10-28T04:12:18.803Z,65.88
2022-10-28T04:14:45.764Z,65.95
2022-10-28T04:17:12.685Z,66.44
2022-10-28T04:19:39.556Z,67.55
2022-10-28T04:22:06.608Z,67.35
2022-10-28T04:24:33.576Z,66.45
2022-10-28T04:27:00.537Z,66.25
2022-10-28T04:29:27.418Z,66.30
2022-10-28T04:31:54.229Z,66.49
2022-10-28T04:34:21.134Z,67.21
2022-10-28T04:36:48.099Z,66.92
2022-10-28T04:39:15.063Z,67.08
2022-10-28T04:41:41.882Z,67.78
2022-10-28T04:44:10.290Z,67.67
2022-10-28T04:46:37.320Z,67.38
2022-10-28T04:49:04.312Z,66.54
2022-10-28T04:51:31.289Z,66.47
2022-10-28T04:53:58.199Z,66.39
2022-10-28T04:56:25.111Z,67.51
2022-10-28T04:58:51.962Z,66.78
2022-10-28T05:01:18.897Z,67.02
2022-10-28T05:03:45.824Z,66.28
2022-10-28T05:06:12.742Z,66.33
2022-10-28T05:08:39.592Z,67.46
2022-10-28T05:11:06.517Z,66.51
2022-10-28T05:13:33.497Z,66.96
2022-10-28T05:16:00.384Z,66.67
2022-10-28T05:18:27.392Z,66.58
2022-10-28T05:20:55.381Z,66.31
2022-10-28T05:23:25.840Z,65.76
2022-10-28T05:25:54.155Z,65.83
2022-10-28T05:28:22.010Z,64.74
2022-10-28T05:30:48.966Z,64.29
2022-10-28T05:33:15.843Z,65.19
2022-10-28T05:35:42.658Z,65.25
2022-10-28T05:38:09.571Z,65.23
2022-10-28T05:40:36.726Z,66.39
2022-10-28T05:43:04.387Z,66.17
2022-10-28T05:45:31.839Z,65.77
2022-10-28T05:47:58.784Z,65.39
2022-10-28T05:50:25.796Z,65.13
2022-10-28T05:52:54.962Z,64.63
2022-10-28T05:55:24.138Z,64.69
2022-10-28T05:57:53.215Z,64.29
2022-10-28T06:00:23.132Z,63.81
2022-10-28T06:02:50.245Z,63.50
2022-10-28T06:05:17.368Z,63.33
2022-10-28T06:07:44.380Z,63.45
2022-10-28T06:10:12.004Z,62.76
2022-10-28T06:12:37.507Z,62.67
2022-10-28T06:15:04.870Z,62.22
2022-10-28T06:17:31.761Z,62.19
2022-10-28T06:19:58.669Z,62.26
2022-10-28T06:22:25.578Z,62.14
2022-10-28T06:24:52.493Z,61.63
2022-10-28T06:27:19.382Z,60.31
2022-10-28T06:29:46.266Z,59.83
2022-10-28T06:32:13.293Z,60.12
2022-10-28T06:34:40.250Z,60.00
2022-10-28T06:37:09.067Z,60.69
2022-10-28T06:39:38.471Z,60.98
2022-10-28T06:42:05.517Z,60.17
2022-10-28T06:44:32.456Z,59.52
2022-10-28T06:47:00.872Z,58.32
2022-10-28T06:49:29.103Z,58.04
2022-10-28T06:51:55.962Z,57.07
2022-10-28T06:54:22.878Z,58.86
2022-10-28T06:56:49.755Z,58.80
2022-10-28T06:59:16.663Z,59.25
2022-10-28T07:01:44.093Z,59.14
2022-10-28T07:04:13.332Z,58.63
2022-10-28T07:06:41.093Z,58.76
2022-10-28T07:09:09.585Z,57.02
2022-10-28T07:11:36.455Z,57.57
2022-10-28T07:14:03.485Z,58.48
2022-10-28T07:16:30.346Z,57.59
2022-10-28T07:18:57.285Z,56.94
2022-10-28T07:21:28.530Z,57.72
2022-10-28T07:23:56.371Z,57.61
2022-10-28T07:26:24.007Z,57.67
2022-10-28T07:28:51.193Z,57.66
2022-10-28T07:31:18.090Z,56.56
2022-10-28T07:33:45.032Z,57.52
2022-10-28T07:36:12.157Z,57.82
2022-10-28T07:38:39.097Z,57.96
2022-10-28T07:41:07.836Z,58.04
2022-10-28T07:43:38.965Z,57.59
2022-10-28T07:46:07.947Z,57.39
2022-10-28T07:48:36.765Z,58.03
2022-10-28T07:51:08.282Z,58.67
2022-10-28T07:53:35.187Z,58.93
2022-10-28T07:56:05.336Z,60.17
2022-10-28T07:58:32.596Z,59.42
2022-10-28T08:01:08.714Z,58.99
2022-10-28T08:03:38.976Z,59.31
2022-10-28T08:06:17.505Z,57.53
2022-10-28T08:08:46.794Z,56.89
2022-10-28T08:11:24.659Z,57.51
2022-10-28T08:13:52.601Z,57.49
2022-10-28T08:16:19.901Z,56.35
2022-10-28T08:18:46.867Z,54.77
2022-10-28T08:21:14.777Z,54.22
2022-10-28T08:23:41.896Z,53.08
2022-10-28T08:26:08.832Z,54.20
2022-10-28T08:28:35.696Z,52.98
2022-10-28T08:31:08.629Z,53.45
2022-10-28T08:33:38.132Z,53.29
2022-10-28T08:36:06.735Z,53.79
2022-10-28T08:38:34.763Z,54.41
2022-10-28T08:41:20.301Z,52.59
2022-10-28T08:44:06.007Z,51.75
2022-10-28T08:46:59.962Z,52.59
2022-10-28T08:49:27.721Z,53.60
2022-10-28T08:52:06.069Z,53.41
2022-10-28T08:54:32.901Z,53.04
2022-10-28T08:57:03.049Z,51.63
2022-10-28T08:59:35.624Z,52.26
2022-10-28T09:02:40.917Z,49.00
2022-10-28T09:05:19.493Z,52.36
2022-10-28T09:07:46.405Z,51.48
2022-10-28T09:10:18.029Z,50.62
2022-10-28T09:13:02.155Z,50.00
2022-10-28T09:16:05.807Z,49.15
2022-10-28T09:18:44.972Z,48.70
2022-10-28T09:21:30.356Z,49.51
2022-10-28T09:23:59.502Z,49.61
2022-10-28T09:26:46.561Z,50.66
2022-10-28T09:29:49.240Z,49.77
2022-10-28T09:32:43.715Z,47.25
2022-10-28T09:35:16.262Z,48.54
2022-10-28T09:37:48.535Z,48.52
2022-10-28T09:40:28.545Z,48.30
2022-10-28T09:43:27.636Z,47.81
2022-10-28T09:46:02.578Z,47.01
2022-10-28T09:48:29.256Z,43.54
2022-10-28T09:50:58.263Z,46.06
2022-10-28T09:53:33.721Z,43.50
2022-10-28T09:56:03.909Z,44.52
2022-10-28T09:58:33.120Z,44.43
2022-10-28T10:01:00.789Z,45.23
2022-10-28T10:03:27.717Z,45.84
2022-10-28T10:05:58.700Z,43.94
2022-10-28T10:08:25.686Z,42.91
2022-10-28T10:11:05.989Z,43.81
2022-10-28T10:13:39.429Z,41.14
2022-10-28T10:16:20.199Z,41.25
2022-10-28T10:18:54.777Z,40.03
2022-10-28T10:21:49.163Z,42.77
2022-10-28T10:24:36.439Z,40.94
2022-10-28T10:27:17.825Z,41.46
2022-10-28T10:29:47.591Z,42.34
2022-10-28T10:32:47.051Z,40.95
2022-10-28T10:35:13.898Z,41.33
2022-10-28T10:37:47.058Z,40.18
2022-10-28T10:40:35.499Z,41.69
2022-10-28T10:43:40.070Z,40.95
2022-10-28T10:46:18.111Z,38.42
2022-10-28T10:48:45.030Z,39.06
2022-10-28T10:51:20.773Z,39.23
2022-10-28T10:53:50.688Z,39.19
2022-10-28T10:56:30.029Z,39.20
2022-10-28T10:59:02.086Z,38.61
2022-10-28T11:01:37.003Z,39.82
2022-10-28T11:04:06.445Z,38.47
2022-10-28T11:06:43.066Z,38.53
2022-10-28T11:09:21.109Z,35.39
2022-10-28T11:11:48.332Z,38.01
2022-10-28T11:14:15.120Z,36.19
2022-10-28T11:17:03.189Z,37.39
2022-10-28T11:19:31.734Z,37.62
2022-10-28T11:22:26.179Z,37.41
2022-10-28T11:25:06.196Z,38.06
2022-10-28T11:27:59.957Z,37.37
2022-10-28T11:33:49.131Z,36.96
2022-10-28T11:36:51.107Z,36.35
2022-10-28T11:39:45.088Z,34.84
2022-10-28T11:42:41.062Z,34.81
2022-10-28T11:45:10.629Z,35.97
2022-10-28T11:48:08.537Z,36.03
2022-10-28T11:51:03.434Z,34.09
2022-10-28T11:53:42.667Z,33.93
2022-10-28T11:56:21.629Z,35.14
2022-10-28T11:59:26.173Z,36.05
2022-10-28T12:02:05.358Z,36.65
2022-10-28T12:04:50.312Z,36.38
2022-10-28T12:07:29.101Z,36.10
2022-10-28T12:10:15.153Z,35.11
2022-10-28T12:13:15.084Z,33.68
2022-10-28T12:15:57.950Z,34.51
2022-10-28T12:18:45.209Z,34.87
2022-10-28T12:24:05.559Z,33.33
2022-10-28T12:26:41.123Z,33.37
2022-10-28T12:29:24.609Z,33.12
2022-10-28T12:32:00.255Z,34.67
2022-10-28T12:34:38.772Z,33.19
2022-10-28T12:37:27.732Z,34.45
2022-10-28T12:40:05.209Z,31.73
2022-10-28T12:42:37.318Z,32.41
2022-10-28T12:45:10.563Z,34.18
2022-10-28T12:47:47.199Z,34.25
2022-10-28T12:50:32.428Z,33.17
2022-10-28T12:53:07.276Z,34.20
2022-10-28T12:55:45.203Z,34.47
2022-10-28T12:58:41.092Z,34.56
2022-10-28T13:01:12.704Z,35.00
2022-10-28T13:03:40.750Z,35.69
2022-10-28T13:06:22.624Z,33.42
2022-10-28T13:09:04.529Z,35.66
2022-10-28T13:11:59.619Z,34.78
2022-10-28T13:14:38.788Z,34.68
2022-10-28T13:17:32.695Z,34.73
2022-10-28T13:20:15.571Z,33.54
2022-10-28T13:23:21.126Z,32.62
2022-10-28T13:25:57.290Z,33.81
2022-10-28T13:28:44.251Z,33.62
2022-10-28T13:31:11.631Z,33.48
2022-10-28T13:33:45.697Z,33.91
2022-10-28T13:36:29.721Z,33.58
2022-10-28T13:39:01.913Z,33.92
2022-10-28T13:41:35.149Z,33.94
2022-10-28T13:44:11.028Z,33.69
2022-10-28T13:46:59.742Z,34.40
2022-10-28T13:49:34.551Z,34.38
2022-10-28T13:52:07.387Z,34.47
2022-10-28T13:54:58.995Z,34.96
2022-10-28T13:57:39.041Z,34.99
2022-10-28T14:03:03.357Z,35.68
2022-10-28T14:05:36.226Z,35.41
2022-10-28T14:08:06.862Z,35.48
2022-10-28T14:10:39.798Z,36.20
2022-10-28T14:15:43.353Z,37.08
2022-10-28T14:21:04.596Z,37.29
2022-10-28T14:23:34.319Z,37.90
2022-10-28T14:26:04.644Z,38.33
2022-10-28T14:28:31.678Z,38.16
2022-10-28T14:31:13.345Z,38.36
2022-10-28T14:33:43.488Z,38.70
2022-10-28T14:36:18.768Z,39.25
2022-10-28T14:38:57.775Z,39.25
2022-10-28T14:41:30.434Z,39.24
2022-10-28T14:44:25.239Z,39.79
2022-10-28T14:47:16.098Z,40.07
2022-10-28T14:50:02.035Z,39.90
2022-10-28T14:52:31.594Z,39.69
2022-10-28T14:55:02.258Z,40.03
2022-10-28T14:57:34.155Z,40.25
2022-10-28T15:00:07.571Z,40.28
2022-10-28T15:02:37.751Z,39.91
2022-10-28T15:05:13.981Z,40.54
2022-10-28T15:07:43.870Z,40.20
2022-10-28T15:10:17.534Z,40.64
2022-10-28T15:12:46.481Z,40.55
2022-10-28T15:15:20.713Z,40.81
2022-10-28T15:17:48.145Z,40.07
2022-10-28T15:20:27.660Z,40.81
2022-10-28T15:23:12.000Z,41.65
2022-10-28T15:25:38.987Z,41.83
2022-10-28T15:28:05.916Z,41.67
2022-10-28T15:30:34.950Z,41.83
2022-10-28T15:33:28.546Z,41.76
2022-10-28T15:36:09.961Z,41.51
2022-10-28T15:38:39.643Z,41.93
2022-10-28T15:41:21.584Z,41.71
2022-10-28T15:43:55.940Z,41.73
2022-10-28T15:46:24.381Z,42.19
2022-10-28T15:48:56.557Z,42.08
2022-10-28T15:51:24.166Z,42.28
2022-10-28T15:54:09.370Z,42.36
2022-10-28T15:56:57.256Z,43.02
2022-10-28T15:59:25.856Z,43.19
2022-10-28T16:01:56.429Z,43.09
2022-10-28T16:04:23.413Z,43.15
2022-10-28T16:06:55.995Z,43.63
2022-10-28T16:09:32.432Z,43.70
2022-10-28T16:12:04.607Z,43.45
2022-10-28T16:14:39.007Z,43.77
2022-10-28T16:17:15.287Z,43.92
2022-10-28T16:20:04.633Z,44.08
2022-10-28T16:22:35.609Z,44.85
2022-10-28T16:25:02.648Z,45.31
2022-10-28T16:27:32.988Z,44.99
2022-10-28T16:30:00.142Z,45.76
2022-10-28T16:32:35.384Z,45.48
2022-10-28T16:35:02.905Z,45.36
2022-10-28T16:37:32.418Z,45.65
2022-10-28T16:39:59.436Z,45.89
2022-10-28T16:42:27.362Z,45.79
2022-10-28T16:44:54.287Z,45.94
2022-10-28T16:47:24.350Z,46.06
2022-10-28T16:49:54.468Z,46.26
2022-10-28T16:52:30.108Z,46.50
2022-10-28T16:54:57.851Z,46.69
2022-10-28T16:59:51.850Z,47.13
2022-10-28T17:02:30.923Z,47.08
2022-10-28T17:04:58.657Z,47.45
2022-10-28T17:07:26.673Z,48.58
2022-10-28T17:09:53.779Z,48.51
2022-10-28T17:12:25.892Z,48.71
2022-10-28T17:14:53.331Z,48.65
2022-10-28T17:17:20.421Z,49.02
2022-10-28T17:19:47.535Z,49.53
2022-10-28T17:22:14.504Z,49.28
2022-10-28T17:24:41.558Z,49.13
2022-10-28T17:27:08.531Z,50.29
2022-10-28T17:29:35.559Z,49.38
2022-10-28T17:32:02.592Z,49.38
2022-10-28T17:34:29.527Z,49.11
2022-10-28T17:36:56.578Z,50.73
2022-10-28T17:39:26.236Z,51.91
2022-10-28T17:41:53.794Z,51.27
2022-10-28T17:44:21.220Z,51.53
2022-10-28T17:46:49.084Z,51.38
2022-10-28T17:49:16.175Z,51.85
2022-10-28T17:51:43.566Z,51.58
2022-10-28T17:54:10.856Z,51.71
2022-10-28T17:56:39.378Z,51.33
2022-10-28T17:59:06.313Z,51.46
2022-10-28T18:01:35.089Z,51.48
2022-10-28T18:04:03.801Z,51.26
2022-10-28T18:06:30.723Z,51.60
2022-10-28T18:08:58.446Z,51.95
2022-10-28T18:11:26.639Z,52.57
2022-10-28T18:13:55.981Z,53.34
2022-10-28T18:16:27.631Z,52.67
2022-10-28T18:18:55.633Z,52.40
2022-10-28T18:21:24.578Z,52.28
2022-10-28T18:23:57.194Z,52.31
2022-10-28T18:26:24.065Z,52.19
2022-10-28T18:28:50.926Z,52.53
2022-10-28T18:31:19.995Z,52.54
2022-10-28T18:33:47.558Z,52.61
2022-10-28T18:36:22.793Z,52.61
2022-10-28T18:38:51.010Z,52.55
2022-10-28T18:41:20.195Z,53.18
2022-10-28T18:43:47.471Z,52.92
2022-10-28T18:46:14.665Z,53.46
2022-10-28T18:48:41.725Z,53.68
2022-10-28T18:51:12.141Z,54.16
2022-10-28T18:53:42.020Z,54.15
2022-10-28T18:56:14.559Z,54.94
2022-10-28T18:58:41.817Z,55.05
2022-10-28T19:01:23.832Z,54.96
2022-10-28T19:03:58.774Z,56.46
2022-10-28T19:06:27.505Z,57.11
2022-10-28T19:08:56.357Z,57.32
2022-10-28T19:11:30.275Z,57.95
2022-10-28T19:14:02.407Z,57.86
2022-10-28T19:16:31.788Z,57.94
2022-10-28T19:18:59.856Z,57.62
2022-10-28T19:21:28.003Z,57.04
2022-10-28T19:23:55.518Z,57.09
2022-10-28T19:26:23.218Z,56.37
2022-10-28T19:28:51.638Z,56.51
2022-10-28T19:31:21.897Z,56.62
2022-10-28T19:33:49.236Z,56.74
2022-10-28T19:36:21.449Z,57.59
2022-10-28T19:38:49.993Z,58.06
2022-10-28T19:41:19.504Z,58.11
2022-10-28T19:43:47.153Z,58.15
2022-10-28T19:46:18.536Z,58.73
2022-10-28T19:48:50.552Z,58.66
2022-10-28T19:51:26.812Z,58.68
2022-10-28T19:53:56.210Z,59.08
2022-10-28T19:56:23.622Z,58.76
2022-10-28T19:58:58.599Z,58.79
2022-10-28T20:01:28.011Z,58.89
2022-10-28T20:03:56.263Z,58.68
2022-10-28T20:06:26.323Z,58.81
2022-10-28T20:08:53.662Z,59.66
2022-10-28T20:11:26.165Z,59.73
2022-10-28T20:13:56.002Z,59.65
2022-10-28T20:16:24.785Z,61.04
2022-10-28T20:18:51.811Z,61.34
2022-10-28T20:21:20.497Z,61.32
2022-10-28T20:23:53.752Z,60.33
2022-10-28T20:26:22.917Z,61.80
2022-10-28T20:28:50.397Z,62.91
2022-10-28T20:31:19.807Z,62.37
2022-10-28T20:33:54.793Z,62.92
2022-10-28T20:36:44.109Z,62.78
2022-10-28T20:39:15.396Z,61.60
2022-10-28T20:41:44.040Z,62.49
2022-10-28T20:44:11.185Z,62.86
2022-10-28T20:46:38.487Z,63.51
2022-10-28T20:49:06.474Z,63.52
2022-10-28T20:51:33.856Z,63.08
2022-10-28T20:54:00.993Z,63.08
2022-10-28T20:56:34.751Z,63.80
2022-10-28T20:59:01.904Z,63.22
2022-10-28T21:01:37.442Z,63.38
2022-10-28T21:04:06.845Z,63.25
2022-10-28T21:06:34.665Z,64.03
2022-10-28T21:09:02.001Z,64.68
2022-10-28T21:11:29.059Z,63.48
2022-10-28T21:13:58.697Z,63.19
2022-10-28T21:16:26.996Z,63.41
2022-10-28T21:18:54.432Z,63.29
2022-10-28T21:21:22.732Z,62.47
2022-10-28T21:23:49.894Z,62.93
2022-10-28T21:26:17.355Z,63.13
2022-10-28T21:28:45.222Z,62.54
2022-10-28T21:31:17.234Z,62.60
2022-10-28T21:33:44.556Z,63.01
2022-10-28T21:36:16.240Z,62.64
2022-10-28T21:38:43.784Z,63.34
2022-10-28T21:41:16.455Z,62.71
2022-10-28T21:43:47.878Z,63.21
2022-10-28T21:46:15.899Z,63.24
2022-10-28T21:48:43.364Z,63.09
2022-10-28T21:51:14.826Z,62.95
2022-10-28T21:53:43.914Z,62.87
2022-10-28T21:56:17.996Z,62.87
2022-10-28T21:58:46.972Z,62.69
2022-10-28T22:01:21.011Z,62.58
2022-10-28T22:03:48.034Z,62.32
2022-10-28T22:06:15.009Z,62.58
2022-10-28T22:08:42.091Z,62.52
2022-10-28T22:11:20.588Z,62.86
2022-10-28T22:14:02.562Z,62.89
2022-10-28T22:16:31.485Z,63.63
2022-10-28T22:19:00.540Z,64.00
2022-10-28T22:21:30.518Z,64.08
2022-10-28T22:23:57.612Z,64.26
2022-10-28T22:26:26.975Z,65.16
2022-10-28T22:28:54.084Z,65.08
2022-10-28T22:31:23.667Z,64.93
2022-10-28T22:33:51.033Z,65.12
2022-10-28T22:36:20.293Z,64.71
2022-10-28T22:38:48.059Z,64.21
2022-10-28T22:41:23.701Z,64.09
2022-10-28T22:43:53.158Z,65.06
2022-10-28T22:46:20.676Z,65.26
2022-10-28T22:48:48.449Z,63.95
2022-10-28T22:51:15.922Z,62.70
2022-10-28T22:53:43.269Z,62.49
2022-10-28T22:56:20.226Z,62.85
2022-10-28T22:58:48.243Z,62.58
2022-10-28T23:01:18.084Z,62.65
2022-10-28T23:03:46.776Z,62.34
2022-10-28T23:06:15.290Z,62.12
2022-10-28T23:08:45.260Z,62.55
2022-10-28T23:11:13.410Z,63.05
2022-10-28T23:13:40.574Z,63.78
2022-10-28T23:16:10.905Z,63.62
2022-10-28T23:18:38.465Z,63.25
2022-10-28T23:21:15.709Z,63.20
2022-10-28T23:23:43.347Z,63.49
2022-10-28T23:26:11.581Z,63.19
2022-10-28T23:28:38.939Z,62.55
2022-10-28T23:31:06.858Z,62.26
2022-10-28T23:33:35.226Z,62.23
2022-10-28T23:36:06.684Z,62.03
2022-10-28T23:38:33.707Z,63.16
2022-10-28T23:41:02.964Z,61.19
2022-10-28T23:43:31.087Z,61.49
2022-10-28T23:45:58.784Z,61.67
2022-10-28T23:48:26.975Z,61.61
2022-10-28T23:50:54.431Z,61.87
2022-10-28T23:53:22.309Z,61.28
2022-10-28T23:55:50.700Z,61.65
2022-10-28T23:58:19.143Z,61.81
